createdAt,value
2023-05-13T00:00:50.172Z,99998.09
2023-05-13T00:03:17.930Z,99997.25
2023-05-13T00:05:45.835Z,100004.38
2023-05-13T00:08:13.391Z,100001.88
2023-05-13T00:10:41.234Z,99999.16
2023-05-13T00:13:08.821Z,100006.28
2023-05-13T00:15:36.244Z,100007.34
2023-05-13T00:18:04.181Z,100002.72
2023-05-13T00:20:31.604Z,100001.88
2023-05-13T00:22:58.966Z,100001.06
2023-05-13T00:25:26.810Z,100001.88
2023-05-13T00:27:54.484Z,100007.34
2023-05-13T00:30:22.105Z,99998.53
2023-05-13T00:32:49.988Z,100005.66
2023-05-13T00:35:17.687Z,100000.22
2023-05-13T00:37:45.471Z,100007.34
2023-05-13T00:40:19.656Z,100005.66
2023-05-13T00:42:47.397Z,100004.81
2023-05-13T00:45:15.281Z,100007.53
2023-05-13T00:47:43.106Z,100005.66
2023-05-13T00:50:11.125Z,100011.31
2023-05-13T00:52:39.836Z,100012.38
2023-05-13T00:55:08.460Z,100007.78
2023-05-13T00:57:36.331Z,100012.38
2023-05-13T01:00:05.830Z,100007.78
2023-05-13T01:03:02.405Z,100013.22
2023-05-13T01:05:52.432Z,100009.44
2023-05-13T01:08:41.918Z,100015.34
2023-05-13T01:11:22.069Z,100022.47
2023-05-13T01:13:51.567Z,100019.97
2023-05-13T01:16:24.134Z,100020.19
2023-05-13T01:18:54.122Z,100024.78
2023-05-13T01:21:26.559Z,100019.59
2023-05-13T01:23:54.206Z,100023.97
2023-05-13T01:26:22.458Z,100023.13
2023-05-13T01:28:50.478Z,100026.69
2023-05-13T01:31:17.972Z,100023.13
2023-05-13T01:33:46.514Z,100017.91
2023-05-13T01:36:14.700Z,100028.59
2023-05-13T01:38:42.794Z,100018.75
2023-05-13T01:41:10.471Z,100019.59
2023-05-13T01:43:38.611Z,100024.19
2023-05-13T01:46:12.398Z,100025.03
2023-05-13T01:48:40.384Z,100018.75
2023-05-13T01:51:08.183Z,100026.09
2023-05-13T01:53:35.577Z,100023.56
2023-05-13T01:56:03.319Z,100022.50
2023-05-13T01:58:30.722Z,100026.09
2023-05-13T02:00:58.218Z,100027.13
2023-05-13T02:03:26.108Z,100025.47
2023-05-13T02:05:54.276Z,100023.56
2023-05-13T02:08:25.463Z,100029.03
2023-05-13T02:10:57.197Z,100030.91
2023-05-13T02:13:24.812Z,100035.31
2023-05-13T02:15:52.874Z,100025.47
2023-05-13T02:18:20.588Z,100027.37
2023-05-13T02:20:48.421Z,100021.09
2023-05-13T02:23:17.753Z,100026.53
2023-05-13T02:25:45.338Z,100025.47
2023-05-13T02:28:12.785Z,100034.72
2023-05-13T02:30:42.157Z,100034.72
2023-05-13T02:33:09.705Z,100029.03
2023-05-13T02:35:37.215Z,100033.87
2023-05-13T02:38:05.634Z,100032.22
2023-05-13T02:40:33.557Z,100028.66
2023-05-13T02:43:00.942Z,100033.25
2023-05-13T02:45:30.079Z,100036.84
2023-05-13T02:47:57.645Z,100039.56
2023-05-13T02:50:25.398Z,100039.56
2023-05-13T02:52:53.415Z,100042.28
2023-05-13T02:55:21.468Z,100041.66
2023-05-13T02:57:48.943Z,100041.41
2023-05-13T03:00:16.784Z,100038.94
2023-05-13T03:02:44.345Z,100040.59
2023-05-13T03:05:11.944Z,100038.94
2023-05-13T03:07:39.701Z,100043.31
2023-05-13T03:10:07.541Z,100040.81
2023-05-13T03:12:35.152Z,100048.16
2023-05-13T03:15:04.128Z,100040.00
2023-05-13T03:17:32.142Z,100047.34
2023-05-13T03:19:59.865Z,100045.44
2023-05-13T03:22:27.588Z,100045.44
2023-05-13T03:24:55.173Z,100054.44
2023-05-13T03:27:23.706Z,100055.50
2023-05-13T03:29:51.403Z,100054.69
2023-05-13T03:32:19.259Z,100053.63
2023-05-13T03:34:46.942Z,100046.50
2023-05-13T03:37:14.876Z,100057.41
2023-05-13T03:39:42.701Z,100067.25
2023-05-13T03:42:10.354Z,100062.84
2023-05-13T03:44:38.422Z,100060.13
2023-05-13T03:47:06.333Z,100066.41
2023-05-13T03:49:33.806Z,100065.59
2023-05-13T03:52:01.687Z,100071.88
2023-05-13T03:54:29.207Z,100060.13
2023-05-13T03:56:56.666Z,100068.31
2023-05-13T03:59:24.457Z,100071.88
2023-05-13T04:01:52.280Z,100073.75
2023-05-13T04:04:19.991Z,100075.41
2023-05-13T04:06:47.389Z,100084.44
2023-05-13T04:09:14.821Z,100080.03
2023-05-13T04:11:43.197Z,100081.69
2023-05-13T04:14:10.869Z,100077.06
2023-05-13T04:16:38.334Z,100076.25
2023-05-13T04:19:06.214Z,100083.59
2023-05-13T04:21:33.702Z,100080.87
2023-05-13T04:24:01.231Z,100079.81
2023-05-13T04:26:28.925Z,100090.72
2023-05-13T04:28:56.385Z,100087.97
2023-05-13T04:31:24.075Z,100089.88
2023-05-13T04:33:51.825Z,100089.03
2023-05-13T04:36:19.282Z,100090.72
2023-05-13T04:38:46.787Z,100092.59
2023-05-13T04:41:14.952Z,100096.16
2023-05-13T04:43:42.756Z,100091.75
2023-05-13T04:46:11.011Z,100091.75
2023-05-13T04:48:38.825Z,100093.44
2023-05-13T04:51:06.639Z,100092.59
2023-05-13T04:53:34.725Z,100093.44
2023-05-13T04:56:02.753Z,100105.16
2023-05-13T04:58:30.417Z,100105.37
2023-05-13T05:00:57.891Z,100111.66
2023-05-13T05:03:25.986Z,100108.94
2023-05-13T05:05:53.832Z,100109.78
2023-05-13T05:08:21.417Z,100114.41
2023-05-13T05:10:49.427Z,100119.84
2023-05-13T05:13:16.841Z,100115.22
2023-05-13T05:15:44.354Z,100116.28
2023-05-13T05:18:14.156Z,100117.12
2023-05-13T05:20:42.252Z,100109.78
2023-05-13T05:23:10.648Z,100116.28
2023-05-13T05:25:38.682Z,100116.28
2023-05-13T05:28:06.105Z,100120.91
2023-05-13T05:30:39.477Z,100124.47
2023-05-13T05:33:08.611Z,100128.03
2023-05-13T05:35:38.340Z,100121.50
2023-05-13T05:38:07.218Z,100125.28
2023-05-13T05:40:36.762Z,100132.41
2023-05-13T05:43:04.564Z,100120.69
2023-05-13T05:45:32.151Z,100123.41
2023-05-13T05:47:59.948Z,100118.19
2023-05-13T05:50:33.500Z,100118.19
2023-05-13T05:53:01.687Z,100116.28
2023-05-13T05:55:31.753Z,100116.28
2023-05-13T05:58:03.945Z,100114.63
2023-05-13T06:00:33.276Z,100119.84
2023-05-13T06:03:01.153Z,100122.56
2023-05-13T06:05:29.345Z,100131.34
2023-05-13T06:07:57.128Z,100128.25
2023-05-13T06:10:24.873Z,100130.75
2023-05-13T06:12:53.475Z,100132.63
2023-05-13T06:15:20.942Z,100129.91
2023-05-13T06:17:48.660Z,100130.97
2023-05-13T06:20:16.178Z,100138.69
2023-05-13T06:22:43.618Z,100139.75
2023-05-13T06:25:11.358Z,100146.50
2023-05-13T06:27:40.793Z,100136.84
2023-05-13T06:30:08.491Z,100147.16
2023-05-13T06:32:38.138Z,100148.41
2023-05-13T06:35:07.311Z,100146.75
2023-05-13T06:37:35.522Z,100145.09
2023-05-13T06:40:04.294Z,100145.28
2023-05-13T06:42:32.801Z,100149.06
2023-05-13T06:45:00.623Z,100143.62
2023-05-13T06:47:28.564Z,100141.13
2023-05-13T06:49:56.188Z,100145.53
2023-05-13T06:52:23.749Z,100143.62
2023-05-13T06:54:51.535Z,100145.53
2023-05-13T06:57:19.393Z,100150.75
2023-05-13T06:59:47.397Z,100142.56
2023-05-13T07:02:15.142Z,100131.66
2023-05-13T07:04:42.609Z,100133.56
2023-05-13T07:07:10.013Z,100135.22
2023-05-13T07:09:37.691Z,100140.66
2023-05-13T07:12:05.210Z,100134.19
2023-05-13T07:14:32.613Z,100130.41
2023-05-13T07:17:00.416Z,100131.25
2023-05-13T07:19:27.914Z,100128.75
2023-05-13T07:21:55.449Z,100127.88
2023-05-13T07:24:23.256Z,100133.78
2023-05-13T07:26:50.717Z,100140.31
2023-05-13T07:29:18.276Z,100144.25
2023-05-13T07:31:46.002Z,100137.12
2023-05-13T07:34:13.402Z,100143.41
2023-05-13T07:36:41.005Z,100145.09
2023-05-13T07:39:09.333Z,100149.47
2023-05-13T07:41:36.760Z,100153.06
2023-05-13T07:44:05.852Z,100146.56
2023-05-13T07:46:33.680Z,100150.97
2023-05-13T07:49:01.129Z,100148.00
2023-05-13T07:51:29.489Z,100145.28
2023-05-13T07:53:57.255Z,100152.41
2023-05-13T07:56:24.638Z,100160.38
2023-05-13T07:58:52.203Z,100157.41
2023-05-13T08:01:19.921Z,100158.25
2023-05-13T08:03:47.847Z,100160.97
2023-05-13T08:06:15.436Z,100158.06
2023-05-13T08:08:42.834Z,100158.66
2023-05-13T08:11:11.087Z,100170.16
2023-05-13T08:13:38.576Z,100171.03
2023-05-13T08:16:07.293Z,100177.31
2023-05-13T08:18:35.094Z,100184.41
2023-05-13T08:21:02.489Z,100180.63
2023-05-13T08:23:43.449Z,100176.84
2023-05-13T08:26:12.299Z,100181.25
2023-05-13T08:28:39.762Z,100187.53
2023-05-13T08:31:07.235Z,100184.81
2023-05-13T08:33:35.023Z,100194.66
2023-05-13T08:36:02.452Z,100198.22
2023-05-13T08:38:29.899Z,100200.72
2023-05-13T08:40:57.944Z,100195.47
2023-05-13T08:43:25.515Z,100203.44
2023-05-13T08:45:53.565Z,100192.53
2023-05-13T08:48:21.396Z,100200.72
2023-05-13T08:50:48.793Z,100197.16
2023-05-13T08:53:17.106Z,100191.69
2023-05-13T08:55:45.364Z,100198.81
2023-05-13T08:58:12.963Z,100199.63
2023-05-13T09:00:41.892Z,100196.91
2023-05-13T09:03:09.732Z,100189.59
2023-05-13T09:05:38.926Z,100189.59
2023-05-13T09:08:09.109Z,100196.91
2023-05-13T09:10:37.223Z,100195.88
2023-05-13T09:13:04.914Z,100188.75
2023-05-13T09:15:32.618Z,100198.62
2023-05-13T09:18:01.508Z,100194.19
2023-05-13T09:20:29.104Z,100191.47
2023-05-13T09:23:06.989Z,100194.19
2023-05-13T09:25:34.770Z,100193.16
2023-05-13T09:28:03.200Z,100192.53
2023-05-13T09:30:34.081Z,100197.97
2023-05-13T09:33:19.752Z,100201.75
2023-05-13T09:35:52.173Z,100197.16
2023-05-13T09:38:21.639Z,100204.50
2023-05-13T09:40:56.210Z,100193.81
2023-05-13T09:43:26.941Z,100201.16
2023-05-13T09:45:54.857Z,100197.59
2023-05-13T09:48:26.052Z,100196.53
2023-05-13T09:50:55.017Z,100193.00
2023-05-13T09:53:22.478Z,100192.16
2023-05-13T09:56:00.561Z,100190.47
2023-05-13T09:58:29.175Z,100182.28
2023-05-13T10:00:56.973Z,100185.00
2023-05-13T10:03:24.742Z,100191.28
2023-05-13T10:05:52.676Z,100192.34
2023-05-13T10:08:20.199Z,100192.59
2023-05-13T10:10:47.842Z,100189.03
2023-05-13T10:13:16.347Z,100189.84
2023-05-13T10:15:51.137Z,100185.66
2023-05-13T10:18:19.764Z,100191.94
2023-05-13T10:20:47.755Z,100187.56
2023-05-13T10:23:15.144Z,100189.47
2023-05-13T10:25:43.007Z,100186.97
2023-05-13T10:28:10.775Z,100188.84
2023-05-13T10:30:38.376Z,100183.59
2023-05-13T10:33:06.166Z,100184.44
2023-05-13T10:35:38.588Z,100183.59
2023-05-13T10:38:17.699Z,100174.59
2023-05-13T10:41:04.679Z,100172.72
2023-05-13T10:43:32.913Z,100175.44
2023-05-13T10:46:02.001Z,100178.38
2023-05-13T10:48:50.070Z,100182.16
2023-05-13T10:51:18.189Z,100188.03
2023-05-13T10:53:56.188Z,100183.22
2023-05-13T10:56:24.771Z,100184.06
2023-05-13T10:58:58.191Z,100177.97
2023-05-13T11:01:30.245Z,100177.78
2023-05-13T11:03:59.628Z,100171.69
2023-05-13T11:06:34.355Z,100195.38
2023-05-13T11:09:01.894Z,100174.44
2023-05-13T11:11:31.091Z,100168.16
2023-05-13T11:14:17.878Z,100171.94
2023-05-13T11:17:00.692Z,100182.81
2023-05-13T11:19:29.432Z,100185.56
2023-05-13T11:21:58.399Z,100187.84
2023-05-13T11:24:26.449Z,100188.66
2023-05-13T11:26:58.910Z,100186.63
2023-05-13T11:29:34.181Z,100186.63
2023-05-13T11:32:03.167Z,100183.88
2023-05-13T11:34:31.381Z,100190.34
2023-05-13T11:37:05.015Z,100200.22
2023-05-13T11:39:32.929Z,100191.84
2023-05-13T11:42:03.943Z,100193.72
2023-05-13T11:44:31.419Z,100193.72
2023-05-13T11:47:03.087Z,100194.78
2023-05-13T11:49:42.514Z,100201.06
2023-05-13T11:52:14.561Z,100203.78
2023-05-13T11:54:49.436Z,100198.34
2023-05-13T11:57:21.262Z,100203.78
2023-05-13T11:59:57.531Z,100203.56
2023-05-13T12:02:30.277Z,100209.00
2023-05-13T12:05:01.921Z,100210.06
2023-05-13T12:07:29.551Z,100205.69
2023-05-13T12:09:58.367Z,100197.50
2023-05-13T12:12:26.993Z,100202.09
2023-05-13T12:15:02.295Z,100205.69
2023-05-13T12:17:30.627Z,100200.22
2023-05-13T12:20:24.243Z,100205.69
2023-05-13T12:22:53.519Z,100218.84
2023-05-13T12:25:43.097Z,100220.13
2023-05-13T12:28:12.200Z,100215.53
2023-05-13T12:30:41.098Z,100214.69
2023-05-13T12:33:15.895Z,100211.13
2023-05-13T12:35:43.968Z,100215.53
2023-05-13T12:38:15.857Z,100208.41
2023-05-13T12:40:46.968Z,100207.53
2023-05-13T12:43:16.234Z,100209.25
2023-05-13T12:45:45.168Z,100211.13
2023-05-13T12:48:13.587Z,100216.34
2023-05-13T12:50:41.405Z,100209.25
2023-05-13T12:53:08.859Z,100210.06
2023-05-13T12:55:39.960Z,100211.13
2023-05-13T12:58:10.913Z,100212.78
2023-05-13T13:00:38.528Z,100211.72
2023-05-13T13:03:06.152Z,100207.34
2023-05-13T13:05:34.034Z,100203.78
2023-05-13T13:08:02.341Z,100215.53
2023-05-13T13:10:29.781Z,100209.00
2023-05-13T13:12:57.471Z,100213.63
2023-05-13T13:15:24.999Z,100211.72
2023-05-13T13:17:52.462Z,100212.78
2023-05-13T13:20:20.434Z,100201.06
2023-05-13T13:22:47.848Z,100204.81
2023-05-13T13:25:15.378Z,100203.94
2023-05-13T13:27:43.104Z,100203.13
2023-05-13T13:30:10.916Z,100194.94
2023-05-13T13:32:38.395Z,100203.13
2023-05-13T13:35:06.422Z,100200.63
2023-05-13T13:37:35.003Z,100201.47
2023-05-13T13:40:03.630Z,100199.56
2023-05-13T13:42:43.365Z,100199.56
2023-05-13T13:45:15.373Z,100207.13
2023-05-13T13:47:43.175Z,100214.47
2023-05-13T13:50:10.994Z,100211.75
2023-05-13T13:52:38.366Z,100208.38
2023-05-13T13:55:06.721Z,100206.50
2023-05-13T13:57:34.108Z,100200.22
2023-05-13T14:00:01.548Z,100194.78
2023-05-13T14:02:29.451Z,100194.78
2023-05-13T14:04:57.264Z,100202.13
2023-05-13T14:07:24.638Z,100192.28
2023-05-13T14:09:52.537Z,100194.16
2023-05-13T14:12:20.614Z,100193.09
2023-05-13T14:14:48.021Z,100196.06
2023-05-13T14:17:15.444Z,100190.59
2023-05-13T14:19:43.066Z,100184.31
2023-05-13T14:22:10.488Z,100177.00
2023-05-13T14:24:37.920Z,100169.84
2023-05-13T14:27:05.853Z,100169.84
2023-05-13T14:29:33.363Z,100175.28
2023-05-13T14:32:03.020Z,100171.75
2023-05-13T14:34:30.751Z,100170.91
2023-05-13T14:36:58.136Z,100169.03
2023-05-13T14:39:25.542Z,100170.06
2023-05-13T14:41:53.202Z,100174.69
2023-05-13T14:44:20.664Z,100171.97
2023-05-13T14:46:48.159Z,100166.53
2023-05-13T14:49:15.879Z,100165.69
2023-05-13T14:51:43.363Z,100165.91
2023-05-13T14:54:10.927Z,100171.38
2023-05-13T14:56:38.653Z,100174.09
2023-05-13T14:59:06.045Z,100162.56
2023-05-13T15:01:34.028Z,100170.72
2023-05-13T15:04:01.825Z,100165.28
2023-05-13T15:06:29.408Z,100173.47
2023-05-13T15:08:57.468Z,100169.91
2023-05-13T15:11:27.155Z,100162.78
2023-05-13T15:13:54.555Z,100165.50
2023-05-13T15:16:22.351Z,100159.84
2023-05-13T15:18:50.492Z,100157.34
2023-05-13T15:21:18.099Z,100168.22
2023-05-13T15:23:45.911Z,100174.50
2023-05-13T15:26:13.575Z,100164.22
2023-05-13T15:28:41.000Z,100168.00
2023-05-13T15:31:08.598Z,100168.00
2023-05-13T15:33:36.339Z,100177.84
2023-05-13T15:36:05.688Z,100171.38
2023-05-13T15:38:33.138Z,100177.66
2023-05-13T15:41:02.225Z,100177.41
2023-05-13T15:43:31.085Z,100175.53
2023-05-13T15:45:59.023Z,100176.34
2023-05-13T15:48:27.116Z,100176.13
2023-05-13T15:50:54.632Z,100178.84
2023-05-13T15:53:22.052Z,100178.66
2023-05-13T15:55:49.757Z,100178.44
2023-05-13T15:58:17.184Z,100173.81
2023-05-13T16:00:44.970Z,100179.06
2023-05-13T16:03:12.706Z,100181.56
2023-05-13T16:05:40.146Z,100178.84
2023-05-13T16:08:07.536Z,100171.50
2023-05-13T16:10:35.854Z,100182.16
2023-05-13T16:13:03.589Z,100177.56
2023-05-13T16:15:31.590Z,100182.00
2023-05-13T16:17:59.301Z,100180.09
2023-05-13T16:20:26.886Z,100179.03
2023-05-13T16:22:54.391Z,100169.22
2023-05-13T16:25:24.305Z,100166.25
2023-05-13T16:27:52.573Z,100169.81
2023-05-13T16:30:20.189Z,100163.53
2023-05-13T16:32:52.991Z,100169.81
2023-05-13T16:35:21.000Z,100164.34
2023-05-13T16:37:49.007Z,100157.25
2023-05-13T16:40:16.506Z,100164.16
2023-05-13T16:42:44.094Z,100164.34
2023-05-13T16:45:11.880Z,100164.34
2023-05-13T16:47:39.490Z,100157.84
2023-05-13T16:50:08.543Z,100166.25
2023-05-13T16:52:36.491Z,100158.91
2023-05-13T16:55:04.026Z,100151.38
2023-05-13T16:57:31.515Z,100148.84
2023-05-13T16:59:59.175Z,100149.69
2023-05-13T17:02:26.765Z,100146.94
2023-05-13T17:04:54.268Z,100144.22
2023-05-13T17:07:22.075Z,100149.69
2023-05-13T17:09:49.589Z,100147.19
2023-05-13T17:12:17.056Z,100153.47
2023-05-13T17:14:44.840Z,100154.28
2023-05-13T17:17:12.307Z,100162.47
2023-05-13T17:19:39.751Z,100162.28
2023-05-13T17:22:07.538Z,100162.47
2023-05-13T17:24:34.959Z,100155.13
2023-05-13T17:27:02.403Z,100151.38
2023-05-13T17:29:30.061Z,100150.31
2023-05-13T17:31:57.711Z,100144.84
2023-05-13T17:34:25.316Z,100144.84
2023-05-13T17:36:53.075Z,100133.97
2023-05-13T17:39:20.700Z,100131.25
2023-05-13T17:41:48.285Z,100138.56
2023-05-13T17:44:16.031Z,100143.78
2023-05-13T17:46:43.452Z,100144.84
2023-05-13T17:49:10.971Z,100152.37
2023-05-13T17:51:38.721Z,100151.31
2023-05-13T17:54:06.141Z,100151.72
2023-05-13T17:56:33.574Z,100154.22
2023-05-13T17:59:01.237Z,100156.34
2023-05-13T18:01:28.707Z,100158.81
2023-05-13T18:03:56.473Z,100154.22
2023-05-13T18:06:23.849Z,100160.50
2023-05-13T18:08:51.369Z,100162.19
2023-05-13T18:11:19.052Z,100143.09
2023-05-13T18:13:46.451Z,100136.38
2023-05-13T18:16:13.964Z,100139.91
2023-05-13T18:18:41.699Z,100135.09
2023-05-13T18:21:10.628Z,100135.09
2023-05-13T18:23:38.046Z,100152.28
2023-05-13T18:26:05.851Z,100150.38
2023-05-13T18:28:33.294Z,100155.59
2023-05-13T18:31:00.897Z,100159.41
2023-05-13T18:33:28.665Z,100165.69
2023-05-13T18:35:56.094Z,100155.37
2023-05-13T18:38:23.599Z,100162.28
2023-05-13T18:40:51.377Z,100169.63
2023-05-13T18:43:18.762Z,100168.81
2023-05-13T18:45:46.316Z,100168.34
2023-05-13T18:48:14.102Z,100176.75
2023-05-13T18:50:41.536Z,100172.13
2023-05-13T18:53:08.976Z,100172.13
2023-05-13T18:55:36.713Z,100174.84
2023-05-13T18:58:04.127Z,100179.47
2023-05-13T19:00:31.577Z,100180.31
2023-05-13T19:02:59.448Z,100183.88
2023-05-13T19:05:27.256Z,100191.00
2023-05-13T19:07:55.154Z,100186.37
2023-05-13T19:10:23.370Z,100179.03
2023-05-13T19:12:51.073Z,100184.50
2023-05-13T19:15:23.464Z,100180.94
2023-05-13T19:17:52.019Z,100185.31
2023-05-13T19:20:19.472Z,100185.31
2023-05-13T19:22:47.107Z,100185.09
2023-05-13T19:25:14.845Z,100191.19
2023-05-13T19:27:42.474Z,100192.22
2023-05-13T19:30:10.538Z,100185.50
2023-05-13T19:32:38.251Z,100172.94
2023-05-13T19:35:06.405Z,100171.28
2023-05-13T19:37:33.888Z,100172.09
2023-05-13T19:40:01.920Z,100174.00
2023-05-13T19:42:29.459Z,100184.03
2023-05-13T19:44:56.894Z,100178.59
2023-05-13T19:47:26.765Z,100180.47
2023-05-13T19:49:54.290Z,100179.66
2023-05-13T19:52:21.747Z,100180.47
2023-05-13T19:54:49.825Z,100179.87
2023-05-13T19:57:17.276Z,100182.59
2023-05-13T19:59:44.744Z,100182.59
2023-05-13T20:02:12.849Z,100180.09
2023-05-13T20:04:40.800Z,100180.94
2023-05-13T20:07:09.453Z,100181.97
2023-05-13T20:09:37.249Z,100181.12
2023-05-13T20:12:05.644Z,100175.91
2023-05-13T20:14:46.530Z,100166.91
2023-05-13T20:17:18.338Z,100169.41
2023-05-13T20:19:49.112Z,100173.44
2023-05-13T20:22:17.509Z,100179.91
2023-05-13T20:24:48.864Z,100182.63
2023-05-13T20:27:16.516Z,100178.25
2023-05-13T20:29:45.897Z,100183.69
2023-05-13T20:32:13.924Z,100180.38
2023-05-13T20:34:42.064Z,100184.75
2023-05-13T20:37:09.780Z,100178.47
2023-05-13T20:39:37.249Z,100173.03
2023-05-13T20:42:04.869Z,100166.75
2023-05-13T20:44:32.704Z,100165.91
2023-05-13T20:47:00.202Z,100156.03
2023-05-13T20:49:27.572Z,100161.50
2023-05-13T20:51:55.393Z,100161.50
2023-05-13T20:54:22.930Z,100156.91
2023-05-13T20:56:50.424Z,100159.81
2023-05-13T20:59:18.153Z,100156.28
2023-05-13T21:01:47.477Z,100164.44
2023-05-13T21:04:15.187Z,100160.06
2023-05-13T21:06:43.935Z,100160.06
2023-05-13T21:09:11.360Z,100161.12
2023-05-13T21:11:38.923Z,100159.22
2023-05-13T21:14:06.648Z,100161.94
2023-05-13T21:16:35.995Z,100159.22
2023-05-13T21:19:03.529Z,100155.66
2023-05-13T21:21:32.160Z,100150.22
2023-05-13T21:23:59.630Z,100158.41
2023-05-13T21:26:27.327Z,100151.06
2023-05-13T21:28:55.023Z,100150.22
2023-05-13T21:31:22.567Z,100149.37
2023-05-13T21:33:50.061Z,100153.16
2023-05-13T21:36:17.816Z,100152.13
2023-05-13T21:38:45.246Z,100140.38
2023-05-13T21:41:12.899Z,100145.84
2023-05-13T21:43:40.610Z,100142.25
2023-05-13T21:46:08.037Z,100134.06
2023-05-13T21:48:35.485Z,100134.06
2023-05-13T21:51:03.292Z,100137.66
2023-05-13T21:53:30.726Z,100135.97
2023-05-13T21:56:00.248Z,100130.75
2023-05-13T21:58:28.025Z,100128.84
2023-05-13T22:00:55.840Z,100117.12
2023-05-13T22:03:23.661Z,100112.50
2023-05-13T22:05:51.041Z,100114.63
2023-05-13T22:08:18.501Z,100115.47
2023-05-13T22:10:46.129Z,100112.72
2023-05-13T22:13:13.527Z,100115.47
2023-05-13T22:15:40.988Z,100114.63
2023-05-13T22:18:08.898Z,100121.09
2023-05-13T22:20:36.447Z,100114.63
2023-05-13T22:23:03.872Z,100118.37
2023-05-13T22:25:31.560Z,100120.28
2023-05-13T22:27:58.990Z,100120.28
2023-05-13T22:30:26.454Z,100119.44
2023-05-13T22:32:55.768Z,100126.78
2023-05-13T22:35:23.248Z,100127.63
2023-05-13T22:37:52.627Z,100123.00
2023-05-13T22:40:20.470Z,100125.72
2023-05-13T22:42:47.966Z,100125.72
2023-05-13T22:45:15.555Z,100116.72
2023-05-13T22:47:43.221Z,100116.72
2023-05-13T22:50:12.332Z,100111.28
2023-05-13T22:52:40.391Z,100109.59
2023-05-13T22:55:08.712Z,100108.56
2023-05-13T22:57:36.105Z,100106.06
2023-05-13T23:00:04.161Z,100103.34
2023-05-13T23:02:32.145Z,100102.28
2023-05-13T23:04:59.689Z,100107.72
2023-05-13T23:07:27.094Z,100103.34
2023-05-13T23:09:54.756Z,100106.06
2023-05-13T23:12:22.363Z,100106.88
2023-05-13T23:14:50.170Z,100105.22
2023-05-13T23:17:17.828Z,100113.41
2023-05-13T23:19:45.251Z,100111.72
2023-05-13T23:22:12.670Z,100108.16
2023-05-13T23:24:40.382Z,100104.59
2023-05-13T23:27:07.821Z,100103.75
2023-05-13T23:29:35.273Z,100104.59
2023-05-13T23:32:05.021Z,100099.16
2023-05-13T23:34:33.934Z,100102.94
2023-05-13T23:37:01.364Z,100093.09
2023-05-13T23:39:29.079Z,100092.25
2023-05-13T23:41:56.545Z,100094.16
2023-05-13T23:44:23.968Z,100093.31
2023-05-13T23:46:51.791Z,100087.00
2023-05-13T23:49:19.278Z,100094.16
2023-05-13T23:51:46.745Z,100087.87
2023-05-13T23:54:14.390Z,100076.12
2023-05-13T23:56:41.860Z,100080.72
2023-05-13T23:59:09.292Z,100074.47
